createdAt,value
2018-08-23T00:01:28.180Z,7.37
2018-08-23T00:04:06.809Z,8.23
2018-08-23T00:06:35.673Z,9.17
2018-08-23T00:09:06.178Z,8.70
2018-08-23T00:11:37.333Z,9.60
2018-08-23T00:14:05.889Z,8.27
2018-08-23T00:16:50.783Z,11.90
2018-08-23T00:19:19.470Z,8.67
2018-08-23T00:21:48.964Z,9.27
2018-08-23T00:24:19.659Z,7.23
2018-08-23T00:26:50.237Z,8.23
2018-08-23T00:29:25.948Z,10.27
2018-08-23T00:31:56.416Z,8.93
2018-08-23T00:34:26.409Z,8.20
2018-08-23T00:36:55.389Z,8.60
2018-08-23T00:39:24.025Z,8.83
2018-08-23T00:41:57.811Z,9.97
2018-08-23T00:44:26.353Z,7.00
2018-08-23T00:46:55.693Z,9.83
2018-08-23T00:49:32.216Z,8.83
2018-08-23T00:52:00.685Z,10.07
2018-08-23T00:54:29.163Z,10.47
2018-08-23T00:56:57.678Z,10.03
2018-08-23T00:59:26.165Z,11.43
2018-08-23T01:02:11.185Z,8.50
2018-08-23T01:04:44.101Z,9.93
2018-08-23T01:07:21.661Z,9.40
2018-08-23T01:09:50.797Z,7.87
2018-08-23T01:12:20.089Z,9.70
2018-08-23T01:14:50.833Z,8.37
2018-08-23T01:17:19.416Z,8.97
2018-08-23T01:19:57.428Z,8.83
2018-08-23T01:22:25.886Z,7.40
2018-08-23T01:24:54.393Z,10.17
2018-08-23T01:27:28.205Z,8.17
2018-08-23T01:29:56.673Z,7.73
2018-08-23T01:32:31.279Z,8.57
2018-08-23T01:34:59.787Z,9.80
2018-08-23T01:37:36.959Z,10.67
2018-08-23T01:40:07.981Z,8.37
2018-08-23T01:42:37.565Z,9.77
2018-08-23T01:45:07.137Z,8.63
2018-08-23T01:48:10.453Z,11.27
2018-08-23T01:50:39.091Z,9.17
2018-08-23T01:53:07.619Z,11.33
2018-08-23T01:55:36.154Z,10.47
2018-08-23T01:58:04.733Z,11.40
2018-08-23T02:00:34.433Z,11.10
2018-08-23T02:03:03.476Z,9.23
2018-08-23T02:05:32.265Z,10.07
2018-08-23T02:08:00.852Z,11.03
2018-08-23T02:10:29.448Z,12.97
2018-08-23T02:12:58.664Z,9.83
2018-08-23T02:15:35.423Z,12.10
2018-08-23T02:18:04.525Z,14.13
2018-08-23T02:20:33.008Z,10.20
2018-08-23T02:23:04.573Z,9.23
2018-08-23T02:25:33.320Z,10.90
2018-08-23T02:28:03.073Z,12.27
2018-08-23T02:30:45.978Z,10.63
2018-08-23T02:33:14.969Z,11.03
2018-08-23T02:35:56.018Z,9.47
2018-08-23T02:38:25.338Z,10.10
2018-08-23T02:40:53.827Z,11.07
2018-08-23T02:43:22.321Z,9.87
2018-08-23T02:45:52.836Z,11.40
2018-08-23T02:48:21.847Z,12.50
2018-08-23T02:50:51.033Z,11.90
2018-08-23T02:53:43.977Z,10.73
2018-08-23T02:56:17.868Z,10.67
2018-08-23T02:58:59.544Z,12.60
2018-08-23T03:01:29.930Z,12.17
2018-08-23T03:04:10.353Z,13.03
2018-08-23T03:06:44.071Z,9.47
2018-08-23T03:09:17.978Z,14.03
2018-08-23T03:11:48.375Z,12.10
2018-08-23T03:14:17.668Z,11.87
2018-08-23T03:16:54.708Z,10.63
2018-08-23T03:19:23.196Z,10.80
2018-08-23T03:22:00.269Z,11.70
2018-08-23T03:24:28.751Z,11.47
2018-08-23T03:26:57.251Z,12.13
2018-08-23T03:29:25.793Z,12.93
2018-08-23T03:31:54.252Z,11.77
2018-08-23T03:34:22.702Z,13.60
2018-08-23T03:36:51.216Z,11.23
2018-08-23T03:39:19.869Z,13.80
2018-08-23T03:41:48.332Z,15.00
2018-08-23T03:44:24.549Z,12.33
2018-08-23T03:46:53.975Z,16.00
2018-08-23T03:49:57.997Z,11.53
2018-08-23T03:52:31.931Z,12.07
2018-08-23T03:55:01.490Z,10.10
2018-08-23T03:57:35.237Z,10.53
2018-08-23T04:00:03.924Z,10.10
2018-08-23T04:02:32.442Z,11.47
2018-08-23T04:05:08.153Z,15.93
2018-08-23T04:07:37.789Z,14.07
2018-08-23T04:10:06.321Z,11.97
2018-08-23T04:12:36.681Z,12.50
2018-08-23T04:15:23.311Z,10.57
2018-08-23T04:17:52.154Z,13.57
2018-08-23T04:20:20.754Z,11.17
2018-08-23T04:22:49.267Z,11.67
2018-08-23T04:25:17.695Z,11.23
2018-08-23T04:27:46.122Z,14.13
2018-08-23T04:30:14.562Z,10.77
2018-08-23T04:32:46.154Z,11.40
2018-08-23T04:35:21.239Z,12.33
2018-08-23T04:37:50.266Z,12.67
2018-08-23T04:40:18.802Z,12.27
2018-08-23T04:42:47.391Z,13.33
2018-08-23T04:45:33.386Z,13.73
2018-08-23T04:48:03.796Z,12.87
2018-08-23T04:50:32.283Z,12.13
2018-08-23T04:53:00.889Z,12.67
2018-08-23T04:55:29.346Z,11.87
2018-08-23T04:57:58.586Z,11.03
2018-08-23T05:00:27.810Z,12.20
2018-08-23T05:02:56.323Z,15.67
2018-08-23T05:05:25.014Z,9.97
2018-08-23T05:07:53.521Z,10.07
2018-08-23T05:10:22.024Z,14.87
2018-08-23T05:12:50.514Z,13.27
2018-08-23T05:15:18.954Z,13.67
2018-08-23T05:17:47.499Z,13.37
2018-08-23T05:20:19.287Z,13.10
2018-08-23T05:22:56.161Z,13.83
2018-08-23T05:25:25.207Z,10.97
2018-08-23T05:28:10.287Z,12.40
2018-08-23T05:30:38.761Z,10.53
2018-08-23T05:33:12.634Z,13.17
2018-08-23T05:35:41.162Z,12.67
2018-08-23T05:38:10.214Z,15.10
2018-08-23T05:40:44.122Z,13.83
2018-08-23T05:43:13.086Z,12.13
2018-08-23T05:45:47.433Z,14.97
2018-08-23T05:48:26.117Z,12.67
2018-08-23T05:50:54.675Z,12.40
2018-08-23T05:53:23.194Z,15.10
2018-08-23T05:55:54.967Z,15.17
2018-08-23T05:58:26.826Z,15.97
2018-08-23T06:00:55.376Z,13.53
2018-08-23T06:03:23.891Z,10.03
2018-08-23T06:05:52.624Z,12.50
2018-08-23T06:08:21.186Z,14.73
2018-08-23T06:10:55.169Z,12.17
2018-08-23T06:13:23.642Z,10.27
2018-08-23T06:15:57.166Z,13.80
2018-08-23T06:18:26.362Z,13.50
2018-08-23T06:20:54.873Z,13.23
2018-08-23T06:23:33.289Z,14.37
2018-08-23T06:26:02.433Z,10.37
2018-08-23T06:28:30.894Z,13.70
2018-08-23T06:31:00.342Z,11.73
2018-08-23T06:33:38.978Z,12.00
2018-08-23T06:36:08.766Z,13.20
2018-08-23T06:38:38.110Z,11.67
2018-08-23T06:41:07.901Z,13.43
2018-08-23T06:43:36.438Z,11.93
2018-08-23T06:46:05.395Z,12.40
2018-08-23T06:48:33.900Z,11.90
2018-08-23T06:51:03.333Z,10.97
2018-08-23T06:53:47.694Z,12.30
2018-08-23T06:56:17.676Z,11.03
2018-08-23T06:58:46.131Z,9.80
2018-08-23T07:01:31.136Z,9.90
2018-08-23T07:04:10.450Z,14.13
2018-08-23T07:06:39.837Z,9.53
2018-08-23T07:09:09.941Z,14.60
2018-08-23T07:11:38.516Z,12.07
2018-08-23T07:14:13.787Z,11.73
2018-08-23T07:16:43.422Z,9.37
2018-08-23T07:19:25.390Z,11.03
2018-08-23T07:21:54.633Z,10.40
2018-08-23T07:24:37.002Z,10.40
2018-08-23T07:27:06.908Z,10.70
2018-08-23T07:29:35.389Z,10.00
2018-08-23T07:32:06.106Z,8.60
2018-08-23T07:34:34.934Z,9.77
2018-08-23T07:37:09.665Z,10.73
2018-08-23T07:39:38.194Z,11.60
2018-08-23T07:42:06.652Z,9.77
2018-08-23T07:44:35.298Z,7.73
2018-08-23T07:47:03.838Z,8.77
2018-08-23T07:49:32.398Z,10.07
2018-08-23T07:52:00.855Z,8.10
2018-08-23T07:54:29.358Z,9.63
2018-08-23T07:56:57.807Z,11.90
2018-08-23T07:59:26.285Z,8.80
2018-08-23T08:01:54.850Z,12.90
2018-08-23T08:04:23.335Z,11.20
2018-08-23T08:06:51.793Z,9.50
2018-08-23T08:09:26.050Z,8.80
2018-08-23T08:12:00.491Z,9.83
2018-08-23T08:14:37.523Z,9.33
2018-08-23T08:17:13.406Z,8.73
2018-08-23T08:19:46.414Z,10.63
2018-08-23T08:22:14.945Z,11.63
2018-08-23T08:24:43.441Z,10.47
2018-08-23T08:27:11.967Z,12.20
2018-08-23T08:29:40.598Z,10.07
2018-08-23T08:32:10.521Z,12.67
2018-08-23T08:34:43.895Z,12.40
2018-08-23T08:37:12.396Z,10.27
2018-08-23T08:39:41.046Z,10.43
2018-08-23T08:42:09.598Z,13.80
2018-08-23T08:44:38.133Z,12.27
2018-08-23T08:47:06.613Z,11.20
2018-08-23T08:49:35.658Z,13.00
2018-08-23T08:52:04.209Z,9.37
2018-08-23T08:54:32.705Z,10.93
2018-08-23T08:57:01.174Z,10.97
2018-08-23T08:59:31.391Z,10.47
2018-08-23T09:02:00.286Z,11.37
2018-08-23T09:04:34.026Z,11.50
2018-08-23T09:07:02.489Z,9.67
2018-08-23T09:09:32.395Z,10.63
2018-08-23T09:12:02.677Z,13.10
2018-08-23T09:14:31.193Z,14.43
2018-08-23T09:16:59.971Z,11.60
2018-08-23T09:19:39.557Z,14.03
2018-08-23T09:22:13.426Z,14.87
2018-08-23T09:24:42.041Z,14.47
2018-08-23T09:27:18.107Z,15.67
2018-08-23T09:29:46.583Z,12.37
2018-08-23T09:32:20.973Z,12.07
2018-08-23T09:34:49.845Z,12.20
2018-08-23T09:37:18.278Z,13.53
2018-08-23T09:39:46.744Z,12.70
2018-08-23T09:42:15.334Z,13.07
2018-08-23T09:44:58.643Z,14.80
2018-08-23T09:47:27.439Z,13.47
2018-08-23T09:49:56.426Z,17.93
2018-08-23T09:52:28.362Z,14.10
2018-08-23T09:54:56.837Z,14.40
2018-08-23T09:57:25.645Z,15.10
2018-08-23T09:59:55.154Z,14.50
2018-08-23T10:02:28.917Z,13.03
2018-08-23T10:05:01.621Z,12.33
2018-08-23T10:07:35.326Z,12.50
2018-08-23T10:10:09.057Z,11.37
2018-08-23T10:12:42.653Z,10.67
2018-08-23T10:15:16.294Z,12.07
2018-08-23T10:17:49.943Z,9.50
2018-08-23T10:20:23.753Z,6.80
2018-08-23T10:23:04.150Z,8.20
2018-08-23T10:25:41.471Z,6.30
2018-08-23T10:28:12.005Z,7.13
2018-08-23T10:30:40.708Z,5.93
2018-08-23T10:33:09.193Z,6.87
2018-08-23T10:35:38.009Z,9.23
2018-08-23T10:38:07.349Z,7.70
2018-08-23T10:40:35.897Z,7.70
2018-08-23T10:43:04.417Z,7.33
2018-08-23T10:45:32.942Z,7.60
2018-08-23T10:48:06.802Z,8.00
2018-08-23T10:50:35.318Z,5.57
2018-08-23T10:53:03.869Z,6.40
2018-08-23T10:55:32.393Z,9.30
2018-08-23T10:58:00.895Z,10.33
2018-08-23T11:00:29.402Z,6.23
2018-08-23T11:02:57.973Z,8.17
2018-08-23T11:05:26.444Z,6.90
2018-08-23T11:08:00.334Z,10.43
2018-08-23T11:10:34.065Z,6.87
2018-08-23T11:13:07.842Z,6.53
2018-08-23T11:15:36.306Z,7.30
2018-08-23T11:18:10.074Z,8.67
2018-08-23T11:20:45.174Z,8.00
2018-08-23T11:23:16.246Z,7.80
2018-08-23T11:25:44.817Z,6.87
2018-08-23T11:28:18.666Z,6.90
2018-08-23T11:30:47.136Z,9.43
2018-08-23T11:33:15.692Z,8.57
2018-08-23T11:35:44.201Z,6.23
2018-08-23T11:38:12.669Z,6.20
2018-08-23T11:40:41.178Z,5.67
2018-08-23T11:43:09.646Z,6.27
2018-08-23T11:45:38.178Z,5.10
2018-08-23T11:48:06.454Z,7.17
2018-08-23T11:50:35.106Z,7.27
2018-08-23T11:53:03.715Z,5.20
2018-08-23T11:55:32.187Z,6.43
2018-08-23T11:58:00.751Z,5.13
2018-08-23T12:00:29.175Z,7.20
2018-08-23T12:02:57.765Z,5.20
2018-08-23T12:05:26.291Z,7.47
2018-08-23T12:07:55.341Z,6.30
2018-08-23T12:10:24.638Z,6.37
2018-08-23T12:12:54.210Z,5.10
2018-08-23T12:15:28.465Z,5.73
2018-08-23T12:17:57.281Z,6.43
2018-08-23T12:20:25.813Z,5.50
2018-08-23T12:22:54.311Z,5.63
2018-08-23T12:25:22.817Z,8.20
2018-08-23T12:27:56.610Z,5.93
2018-08-23T12:30:25.148Z,5.30
2018-08-23T12:32:53.739Z,5.73
2018-08-23T12:35:22.474Z,5.53
2018-08-23T12:38:00.702Z,8.27
2018-08-23T12:40:36.276Z,5.80
2018-08-23T12:43:13.679Z,7.03
2018-08-23T12:45:44.150Z,5.60
2018-08-23T12:48:13.811Z,6.70
2018-08-23T12:50:43.349Z,5.87
2018-08-23T12:53:11.826Z,5.27
2018-08-23T12:55:40.610Z,5.87
2018-08-23T12:58:12.170Z,5.40
2018-08-23T13:00:41.802Z,5.73
2018-08-23T13:03:10.466Z,6.07
2018-08-23T13:05:39.218Z,6.93
2018-08-23T13:08:07.854Z,6.90
2018-08-23T13:10:36.906Z,6.50
2018-08-23T13:13:05.653Z,9.20
2018-08-23T13:15:34.175Z,6.17
2018-08-23T13:18:03.158Z,6.87
2018-08-23T13:20:31.741Z,6.87
2018-08-23T13:23:00.193Z,8.17
2018-08-23T13:25:28.729Z,7.27
2018-08-23T13:27:57.269Z,9.13
2018-08-23T13:30:25.772Z,6.67
2018-08-23T13:32:54.237Z,6.47
2018-08-23T13:35:22.805Z,8.13
2018-08-23T13:37:51.326Z,6.07
2018-08-23T13:40:20.292Z,7.70
2018-08-23T13:42:49.324Z,7.77
2018-08-23T13:45:17.969Z,7.37
2018-08-23T13:47:46.478Z,6.20
2018-08-23T13:50:14.934Z,6.20
2018-08-23T13:52:43.527Z,7.47
2018-08-23T13:55:12.058Z,6.37
2018-08-23T13:57:40.729Z,5.87
2018-08-23T14:00:13.442Z,6.17
2018-08-23T14:02:42.041Z,6.23
2018-08-23T14:05:10.577Z,5.90
2018-08-23T14:07:39.171Z,6.17
2018-08-23T14:10:07.633Z,5.63
2018-08-23T14:12:36.104Z,7.63
2018-08-23T14:15:04.708Z,6.07
2018-08-23T14:17:33.166Z,5.40
2018-08-23T14:20:01.665Z,6.10
2018-08-23T14:22:30.206Z,5.73
2018-08-23T14:24:58.676Z,5.97
2018-08-23T14:27:27.142Z,5.73
2018-08-23T14:29:55.607Z,6.63
2018-08-23T14:32:24.068Z,5.93
2018-08-23T14:34:52.593Z,5.97
2018-08-23T14:37:21.127Z,5.60
2018-08-23T14:39:49.619Z,5.30
2018-08-23T14:42:18.123Z,6.67
2018-08-23T14:44:46.580Z,5.00
2018-08-23T14:47:20.489Z,5.53
2018-08-23T14:49:48.976Z,5.43
2018-08-23T14:52:17.546Z,7.17
2018-08-23T14:54:46.043Z,5.60
2018-08-23T14:57:19.645Z,5.60
2018-08-23T14:59:48.093Z,6.00
2018-08-23T15:02:16.598Z,5.40
2018-08-23T15:04:48.969Z,7.17
2018-08-23T15:07:17.869Z,5.50
2018-08-23T15:09:46.522Z,6.23
2018-08-23T15:12:15.018Z,6.20
2018-08-23T15:14:43.473Z,6.00
2018-08-23T15:17:11.926Z,5.43
2018-08-23T15:19:40.907Z,5.40
2018-08-23T15:22:10.323Z,6.40
2018-08-23T15:24:39.091Z,6.20
2018-08-23T15:27:07.743Z,7.03
2018-08-23T15:29:36.067Z,6.53
2018-08-23T15:32:04.565Z,5.90
2018-08-23T15:34:33.122Z,6.00
2018-08-23T15:37:01.726Z,6.27
2018-08-23T15:39:30.282Z,6.43
2018-08-23T15:41:58.711Z,5.53
2018-08-23T15:44:27.153Z,6.40
2018-08-23T15:46:55.650Z,5.40
2018-08-23T15:49:24.228Z,6.57
2018-08-23T15:51:52.777Z,5.83
2018-08-23T15:54:21.286Z,8.33
2018-08-23T15:56:49.734Z,7.60
2018-08-23T15:59:18.936Z,8.70
2018-08-23T16:01:47.432Z,8.13
2018-08-23T16:04:15.953Z,6.47
2018-08-23T16:06:45.121Z,6.07
2018-08-23T16:09:13.707Z,8.00
2018-08-23T16:11:42.197Z,6.23
2018-08-23T16:14:10.714Z,6.47
2018-08-23T16:16:44.678Z,6.47
2018-08-23T16:19:17.397Z,5.63
2018-08-23T16:21:50.165Z,6.27
2018-08-23T16:24:18.693Z,6.20
2018-08-23T16:26:52.622Z,6.27
2018-08-23T16:29:21.238Z,5.60
2018-08-23T16:31:49.829Z,5.87
2018-08-23T16:34:18.386Z,5.60
2018-08-23T16:36:46.878Z,6.00
2018-08-23T16:39:15.391Z,5.40
2018-08-23T16:41:43.989Z,6.40
2018-08-23T16:44:12.649Z,7.53
2018-08-23T16:46:41.218Z,7.43
2018-08-23T16:49:09.743Z,6.87
2018-08-23T16:51:38.264Z,6.57
2018-08-23T16:54:06.861Z,13.27
2018-08-23T16:56:35.438Z,8.90
2018-08-23T16:59:04.002Z,5.93
2018-08-23T17:01:32.536Z,7.60
2018-08-23T17:04:01.098Z,7.07
2018-08-23T17:06:29.722Z,6.57
2018-08-23T17:08:58.268Z,8.17
2018-08-23T17:11:26.955Z,10.60
2018-08-23T17:13:55.469Z,8.80
2018-08-23T17:16:29.285Z,9.90
2018-08-23T17:18:57.809Z,7.93
2018-08-23T17:21:26.341Z,7.83
2018-08-23T17:23:54.976Z,9.87
2018-08-23T17:26:24.017Z,6.70
2018-08-23T17:28:52.538Z,7.53
2018-08-23T17:31:21.129Z,9.13
2018-08-23T17:33:49.742Z,6.87
2018-08-23T17:36:18.302Z,7.23
2018-08-23T17:38:47.006Z,9.03
2018-08-23T17:41:16.130Z,9.53
2018-08-23T17:43:44.893Z,8.80
2018-08-23T17:46:13.482Z,9.93
2018-08-23T17:48:42.069Z,11.60
2018-08-23T17:51:10.538Z,12.60
2018-08-23T17:53:39.021Z,11.77
2018-08-23T17:56:07.601Z,13.73
2018-08-23T17:58:36.094Z,13.43
2018-08-23T18:01:04.691Z,13.73
2018-08-23T18:03:33.248Z,12.03
2018-08-23T18:06:01.772Z,11.73
2018-08-23T18:08:30.374Z,11.97
2018-08-23T18:10:58.939Z,9.53
2018-08-23T18:13:27.525Z,11.67
2018-08-23T18:16:01.578Z,13.47
2018-08-23T18:18:30.222Z,14.73
2018-08-23T18:20:58.806Z,13.97
2018-08-23T18:23:27.494Z,14.30
2018-08-23T18:25:56.014Z,16.83
2018-08-23T18:28:24.625Z,17.07
2018-08-23T18:30:53.296Z,17.13
2018-08-23T18:33:21.822Z,21.70
2018-08-23T18:35:50.407Z,25.40
2018-08-23T18:38:18.961Z,31.03
2018-08-23T18:40:47.481Z,25.97
2018-08-23T18:43:16.046Z,18.87
2018-08-23T18:45:44.587Z,21.27
2018-08-23T18:48:13.168Z,27.23
2018-08-23T18:50:41.714Z,24.93
2018-08-23T18:53:10.220Z,20.83
2018-08-23T18:55:38.881Z,19.43
2018-08-23T18:58:07.420Z,18.00
2018-08-23T19:00:35.918Z,14.43
2018-08-23T19:03:04.539Z,17.23
2018-08-23T19:05:33.051Z,17.43
2018-08-23T19:08:01.639Z,20.40
2018-08-23T19:10:30.191Z,17.00
2018-08-23T19:12:58.832Z,15.67
2018-08-23T19:17:35.572Z,15.23
2018-08-23T19:20:04.116Z,14.60
2018-08-23T19:22:32.720Z,15.97
2018-08-23T19:25:01.240Z,11.17
2018-08-23T19:27:30.354Z,15.93
2018-08-23T19:30:00.156Z,14.97
2018-08-23T19:32:28.720Z,13.43
2018-08-23T19:34:57.201Z,14.60
2018-08-23T19:37:25.749Z,14.93
2018-08-23T19:39:54.486Z,13.73
2018-08-23T19:42:23.152Z,13.83
2018-08-23T19:44:56.533Z,14.97
2018-08-23T19:47:30.481Z,14.97
2018-08-23T19:50:01.258Z,18.23
2018-08-23T19:52:30.503Z,16.13
2018-08-23T19:54:58.989Z,17.17
2018-08-23T19:57:27.467Z,16.33
2018-08-23T19:59:56.002Z,18.17
2018-08-23T20:02:24.475Z,19.40
2018-08-23T20:04:54.898Z,18.33
2018-08-23T20:07:23.641Z,16.13
2018-08-23T20:09:52.094Z,16.20
2018-08-23T20:12:20.621Z,17.03
2018-08-23T20:14:49.139Z,17.00
2018-08-23T20:17:17.661Z,18.57
2018-08-23T20:19:46.222Z,21.57
2018-08-23T20:22:14.720Z,18.20
2018-08-23T20:24:43.189Z,19.97
2018-08-23T20:27:11.857Z,20.20
2018-08-23T20:29:40.358Z,21.37
2018-08-23T20:32:08.882Z,18.90
2018-08-23T20:34:37.440Z,17.80
2018-08-23T20:37:06.160Z,16.60
2018-08-23T20:39:34.685Z,18.53
2018-08-23T20:42:03.158Z,20.20
2018-08-23T20:44:31.678Z,17.53
2018-08-23T20:47:00.287Z,17.73
2018-08-23T20:49:28.794Z,19.07
2018-08-23T20:51:57.269Z,19.10
2018-08-23T20:54:25.758Z,19.80
2018-08-23T20:56:54.341Z,20.73
2018-08-23T20:59:22.834Z,20.53
2018-08-23T21:01:51.359Z,18.20
2018-08-23T21:04:19.943Z,20.37
2018-08-23T21:06:48.402Z,22.63
2018-08-23T21:09:16.925Z,19.03
2018-08-23T21:11:45.418Z,21.67
2018-08-23T21:14:13.932Z,18.30
2018-08-23T21:16:42.438Z,20.67
2018-08-23T21:19:11.933Z,24.27
2018-08-23T21:21:40.457Z,20.03
2018-08-23T21:24:08.923Z,20.27
2018-08-23T21:26:37.442Z,20.70
2018-08-23T21:29:05.937Z,21.90
2018-08-23T21:31:34.377Z,22.37
2018-08-23T21:34:02.861Z,20.50
2018-08-23T21:36:31.320Z,23.00
2018-08-23T21:38:59.942Z,21.53
2018-08-23T21:41:28.416Z,21.27
2018-08-23T21:43:56.861Z,19.63
2018-08-23T21:46:25.354Z,21.23
2018-08-23T21:48:53.814Z,21.57
2018-08-23T21:51:22.303Z,23.70
2018-08-23T21:53:50.854Z,21.97
2018-08-23T21:56:19.333Z,23.33
2018-08-23T21:58:47.779Z,24.27
2018-08-23T22:01:16.247Z,20.80
2018-08-23T22:03:44.737Z,21.50
2018-08-23T22:06:13.173Z,21.33
2018-08-23T22:08:41.670Z,22.03
2018-08-23T22:11:10.151Z,23.50
2018-08-23T22:13:38.663Z,21.10
2018-08-23T22:16:07.191Z,21.93
2018-08-23T22:18:35.678Z,21.10
2018-08-23T22:21:04.391Z,22.57
2018-08-23T22:23:32.872Z,22.37
2018-08-23T22:26:01.413Z,22.27
2018-08-23T22:28:29.929Z,21.73
2018-08-23T22:30:58.453Z,27.50
2018-08-23T22:33:26.980Z,23.93
2018-08-23T22:35:55.433Z,21.50
2018-08-23T22:38:23.954Z,26.03
2018-08-23T22:40:52.508Z,24.20
2018-08-23T22:43:20.970Z,25.67
2018-08-23T22:45:49.558Z,22.03
2018-08-23T22:48:18.080Z,24.23
2018-08-23T22:50:46.527Z,24.47
2018-08-23T22:53:15.001Z,26.17
2018-08-23T22:55:43.499Z,23.67
2018-08-23T22:58:12.840Z,23.30
2018-08-23T23:00:42.100Z,25.70
2018-08-23T23:03:15.902Z,27.03
2018-08-23T23:05:44.769Z,24.17
2018-08-23T23:08:13.225Z,23.80
2018-08-23T23:10:41.786Z,23.80
2018-08-23T23:13:10.425Z,25.80
2018-08-23T23:15:38.902Z,23.20
2018-08-23T23:18:07.352Z,22.67
2018-08-23T23:20:35.950Z,23.47
2018-08-23T23:23:04.501Z,22.80
2018-08-23T23:25:32.969Z,23.10
2018-08-23T23:28:01.418Z,26.03
2018-08-23T23:30:29.860Z,25.27
2018-08-23T23:32:58.317Z,25.73
2018-08-23T23:35:26.812Z,21.03
2018-08-23T23:37:55.297Z,26.30
2018-08-23T23:40:23.792Z,25.23
2018-08-23T23:42:52.291Z,23.73
2018-08-23T23:45:20.804Z,29.20
2018-08-23T23:47:49.357Z,22.63
2018-08-23T23:50:17.848Z,23.37
2018-08-23T23:52:46.413Z,25.57
2018-08-23T23:55:14.898Z,24.47
2018-08-23T23:57:43.351Z,28.60
